Jonesboro Heights, North Carolina
Current Conditions -  °F | °C
As of 3:35 PM on Wednesday 26 Nov 2014 (Local Time) from KTTA Reporting Station
Broken Clouds Broken Clouds  
Wind Chill: 43°   Ceiling: 5000
Heat Index: 46°   Visibility: 10mi
Dew Point: 43°   Wind: 5mph
Humidity: 91%   Direction: 310°NW
Pressure: 29.99"   Gusts: NA
Location:  35.493°N, 79.1765°W
Report Text: KTTA 262035Z AUTO 31004KT 10SM SCT018 BKN050 08/06 A2999 RMK AO2 T00760062
Loading
Personal Weather Stations






























Interactive Weather Map New forecast layout! Learn more

10-Day Weather Forecast

Advertisements
Track Severe Weather on mobile